createdAt,value
2022-11-21T07:48:33.872Z,2.27
2022-11-21T07:51:05.878Z,1.67
2022-11-21T07:53:33.917Z,2.77
2022-11-21T07:56:01.806Z,2.73
2022-11-21T07:58:29.757Z,2.83
2022-11-21T08:00:57.616Z,2.20
2022-11-21T08:03:25.511Z,2.50
2022-11-21T08:05:54.719Z,3.03
2022-11-21T08:08:22.601Z,3.60
2022-11-21T08:10:51.533Z,3.37
2022-11-21T08:13:19.536Z,3.30
2022-11-21T08:15:47.371Z,3.50
2022-11-21T08:18:19.044Z,3.17
2022-11-21T08:20:47.115Z,3.87
2022-11-21T08:23:16.800Z,3.57
2022-11-21T08:25:45.282Z,2.87
2022-11-21T08:28:13.552Z,2.40
2022-11-21T08:30:41.907Z,3.03
2022-11-21T08:33:09.913Z,3.30
2022-11-21T08:35:39.091Z,3.50
2022-11-21T08:38:07.300Z,2.97
2022-11-21T08:40:37.442Z,3.63
2022-11-21T08:43:07.028Z,1.70
2022-11-21T08:45:35.694Z,2.77
2022-11-21T08:48:04.778Z,2.97
2022-11-21T08:50:33.185Z,3.30
2022-11-21T08:53:02.500Z,3.40
2022-11-21T08:55:30.638Z,4.40
2022-11-21T08:57:59.988Z,3.93
2022-11-21T09:00:27.915Z,3.30
2022-11-21T09:02:55.763Z,3.47
2022-11-21T09:05:23.598Z,3.63
2022-11-21T09:07:58.389Z,3.60
2022-11-21T09:10:27.134Z,3.47
2022-11-21T09:12:54.998Z,3.60
2022-11-21T09:15:41.742Z,3.30
2022-11-21T09:18:09.674Z,3.30
2022-11-21T09:20:41.554Z,4.07
2022-11-21T09:23:11.028Z,5.20
2022-11-21T09:25:39.452Z,4.80
2022-11-21T09:28:09.302Z,4.20
2022-11-21T09:30:39.383Z,3.83
2022-11-21T09:33:08.754Z,3.33
2022-11-21T09:35:36.862Z,4.20
2022-11-21T09:38:05.628Z,3.37
2022-11-21T09:40:35.238Z,3.23
2022-11-21T09:43:27.707Z,4.27
2022-11-21T09:46:03.862Z,3.97
2022-11-21T09:48:35.784Z,5.17
2022-11-21T09:51:08.781Z,4.57
2022-11-21T09:53:39.818Z,3.87
2022-11-21T09:56:12.269Z,3.80
2022-11-21T09:58:44.699Z,3.27
2022-11-21T10:01:14.971Z,2.80
2022-11-21T10:03:45.022Z,3.80
2022-11-21T10:06:20.441Z,3.13
2022-11-21T10:08:56.263Z,3.20
2022-11-21T10:11:59.177Z,3.70
2022-11-21T10:14:40.046Z,3.30
2022-11-21T10:17:22.343Z,3.50
2022-11-21T10:20:09.735Z,3.03
2022-11-21T10:22:54.857Z,3.17
2022-11-21T10:25:27.584Z,3.13
2022-11-21T10:27:58.728Z,3.27
2022-11-21T10:30:26.575Z,3.20
2022-11-21T10:32:59.359Z,3.23
2022-11-21T10:35:36.221Z,4.10
2022-11-21T10:38:14.553Z,3.70
2022-11-21T10:40:47.372Z,3.53
2022-11-21T10:43:44.835Z,3.80
2022-11-21T10:46:12.723Z,3.20
2022-11-21T10:48:42.164Z,3.60
2022-11-21T10:51:27.550Z,3.60
2022-11-21T10:54:23.560Z,3.10
2022-11-21T10:56:53.140Z,3.07
2022-11-21T10:59:30.129Z,3.47
2022-11-21T11:02:01.066Z,3.77
2022-11-21T11:04:37.514Z,4.60
2022-11-21T11:07:24.014Z,4.93
2022-11-21T11:09:53.535Z,4.30
2022-11-21T11:12:25.227Z,4.37
2022-11-21T11:14:55.428Z,3.73
2022-11-21T11:17:31.240Z,3.90
2022-11-21T11:20:06.585Z,3.10
2022-11-21T11:22:35.000Z,3.10
2022-11-21T11:25:04.985Z,2.90
2022-11-21T11:27:32.852Z,3.57
2022-11-21T11:30:07.689Z,3.70
2022-11-21T11:32:40.952Z,3.50
2022-11-21T11:35:23.104Z,3.40
2022-11-21T11:38:02.767Z,3.00
2022-11-21T11:40:36.979Z,3.17
2022-11-21T11:43:38.284Z,3.17
2022-11-21T11:46:48.540Z,2.60
2022-11-21T11:49:24.090Z,2.70
2022-11-21T11:51:57.733Z,2.30
2022-11-21T11:54:31.042Z,2.70
2022-11-21T11:56:59.944Z,2.70
2022-11-21T11:59:32.514Z,2.43
2022-11-21T12:02:10.341Z,2.33
2022-11-21T12:04:47.186Z,2.10
2022-11-21T12:10:19.202Z,2.10
2022-11-21T12:12:51.420Z,1.90
2022-11-21T12:15:42.136Z,2.47
2022-11-21T12:18:21.405Z,2.07
2022-11-21T12:20:59.307Z,1.77
2022-11-21T12:23:33.158Z,1.90
2022-11-21T12:26:13.618Z,1.90
2022-11-21T12:29:03.032Z,1.87
2022-11-21T12:31:41.960Z,2.20
2022-11-21T12:34:21.839Z,2.07
2022-11-21T12:36:58.358Z,2.20
2022-11-21T12:39:57.254Z,2.13
2022-11-21T12:42:58.473Z,2.50
2022-11-21T12:45:32.128Z,2.30
2022-11-21T12:48:35.711Z,1.90
2022-11-21T12:51:40.948Z,2.10
2022-11-21T12:54:34.316Z,2.97
2022-11-21T12:57:11.509Z,2.30
2022-11-21T12:59:51.828Z,2.27
2022-11-21T13:02:29.833Z,2.40
2022-11-21T13:04:59.501Z,2.97
2022-11-21T13:07:30.825Z,2.27
2022-11-21T13:10:01.500Z,2.50
2022-11-21T13:12:39.636Z,2.40
2022-11-21T13:15:19.241Z,2.23
2022-11-21T13:17:55.151Z,1.90
2022-11-21T13:20:28.610Z,2.20
2022-11-21T13:22:58.631Z,1.97
2022-11-21T13:25:48.788Z,2.37
2022-11-21T13:28:35.742Z,2.10
2022-11-21T13:31:24.945Z,2.20
2022-11-21T13:33:53.051Z,2.37
2022-11-21T13:36:41.943Z,2.43
2022-11-21T13:39:30.775Z,2.17
2022-11-21T13:42:30.398Z,1.70
2022-11-21T13:45:00.928Z,1.97
2022-11-21T13:48:01.109Z,2.23
2022-11-21T13:51:10.041Z,1.83
2022-11-21T13:54:07.488Z,2.17
2022-11-21T13:56:42.002Z,2.13
2022-11-21T13:59:30.837Z,1.70
2022-11-21T14:02:45.167Z,2.63
2022-11-21T14:05:24.085Z,2.03
2022-11-21T14:07:52.190Z,2.40
2022-11-21T14:10:33.546Z,2.00
2022-11-21T14:13:03.339Z,2.70
2022-11-21T14:15:39.631Z,2.50
2022-11-21T14:18:21.510Z,2.90
2022-11-21T14:20:53.854Z,2.00
2022-11-21T14:23:24.106Z,2.00
2022-11-21T14:25:55.783Z,2.03
2022-11-21T14:28:26.333Z,2.20
2022-11-21T14:30:59.127Z,2.40
2022-11-21T14:33:33.649Z,2.20
2022-11-21T14:36:07.359Z,2.50
2022-11-21T14:38:41.692Z,2.30
2022-11-21T14:41:31.241Z,2.97
2022-11-21T14:44:17.120Z,2.43
2022-11-21T14:46:47.480Z,2.67
2022-11-21T14:49:30.441Z,2.30
2022-11-21T14:52:16.412Z,2.20
2022-11-21T14:55:22.200Z,1.80
2022-11-21T14:57:42.384Z,2.67
2022-11-21T15:00:43.416Z,2.80
2022-11-21T15:03:04.944Z,2.53
2022-11-21T15:08:55.804Z,2.00
2022-11-21T15:11:13.925Z,2.10
2022-11-21T15:14:12.404Z,2.53
2022-11-21T15:16:32.324Z,2.53
2022-11-21T15:19:00.288Z,2.57
2022-11-21T15:21:29.685Z,2.83
2022-11-21T15:23:57.532Z,2.70
2022-11-21T15:26:31.506Z,3.23
2022-11-21T15:29:01.088Z,2.97
2022-11-21T15:31:29.454Z,3.27
2022-11-21T15:37:03.523Z,8.17
2022-11-21T15:39:31.771Z,7.20
2022-11-21T15:42:30.293Z,7.03
2022-11-21T15:45:00.393Z,6.67
2022-11-21T15:47:28.590Z,7.10
2022-11-21T15:49:56.656Z,7.00
2022-11-21T15:52:25.938Z,7.90
2022-11-21T15:54:53.752Z,7.13
2022-11-21T15:57:22.303Z,7.43
2022-11-21T15:59:50.797Z,7.70
2022-11-21T16:02:18.643Z,8.73
2022-11-21T16:04:46.644Z,8.43
2022-11-21T16:07:14.529Z,16.87
2022-11-21T16:09:44.945Z,18.73
2022-11-21T16:12:12.774Z,12.13
2022-11-21T16:14:40.644Z,13.50
2022-11-21T16:17:09.169Z,9.93
2022-11-21T16:19:37.053Z,8.83
2022-11-21T16:22:04.921Z,9.20
2022-11-21T16:24:32.767Z,10.20
2022-11-21T16:27:02.457Z,8.90
2022-11-21T16:29:30.749Z,8.87
2022-11-21T16:31:58.950Z,9.80
2022-11-21T16:34:27.535Z,13.97
2022-11-21T16:36:56.292Z,10.23
2022-11-21T16:39:24.242Z,11.30
2022-11-21T16:41:52.048Z,10.77
2022-11-21T16:44:21.251Z,10.53
2022-11-21T16:46:51.605Z,10.50
2022-11-21T16:49:20.293Z,9.00
2022-11-21T16:51:48.132Z,9.07
2022-11-21T16:54:16.231Z,10.57
2022-11-21T16:56:44.062Z,10.47
2022-11-21T16:59:12.103Z,8.63
2022-11-21T17:01:41.458Z,3.47
2022-11-21T17:04:15.644Z,3.47
2022-11-21T17:06:45.018Z,3.67
2022-11-21T17:09:13.109Z,3.73
2022-11-21T17:11:40.942Z,3.43
2022-11-21T17:14:09.416Z,3.00
2022-11-21T17:16:37.751Z,3.10
2022-11-21T17:19:07.521Z,3.30
2022-11-21T17:21:35.482Z,4.37
2022-11-21T17:24:03.546Z,3.93
2022-11-21T17:26:31.421Z,7.60
2022-11-21T17:29:00.771Z,5.20
2022-11-21T17:31:29.277Z,6.13
2022-11-21T17:33:57.777Z,14.50
2022-11-21T17:36:28.734Z,11.10
2022-11-21T17:38:56.734Z,12.03
2022-11-21T17:41:25.995Z,4.77
2022-11-21T17:43:56.065Z,7.27
2022-11-21T17:46:25.477Z,4.87
2022-11-21T17:48:57.780Z,4.03
2022-11-21T17:51:30.003Z,4.23
2022-11-21T17:53:59.566Z,5.07
2022-11-21T17:56:29.030Z,5.50
2022-11-21T17:58:57.431Z,4.73
2022-11-21T18:01:25.768Z,5.17
2022-11-21T18:03:57.241Z,5.30
2022-11-21T18:06:27.539Z,5.03
2022-11-21T18:08:57.235Z,4.20
2022-11-21T18:11:28.178Z,5.47
2022-11-21T18:13:56.038Z,5.17
2022-11-21T18:16:26.633Z,4.47
2022-11-21T18:18:54.502Z,4.70
2022-11-21T18:21:24.195Z,5.10
2022-11-21T18:23:54.494Z,4.67
2022-11-21T18:26:24.424Z,5.33
2022-11-21T18:29:13.510Z,5.10
2022-11-21T18:31:42.854Z,4.47
2022-11-21T18:34:12.159Z,4.17
2022-11-21T18:36:40.081Z,3.87
2022-11-21T18:39:14.507Z,5.43
2022-11-21T18:41:43.310Z,5.53
2022-11-21T18:44:14.600Z,5.00
2022-11-21T18:46:45.038Z,3.90
2022-11-21T18:49:12.998Z,4.30
2022-11-21T18:51:40.870Z,4.90
2022-11-21T18:54:11.178Z,4.53
2022-11-21T18:56:40.690Z,5.03
2022-11-21T18:59:09.050Z,4.97
2022-11-21T19:01:39.411Z,4.97
2022-11-21T19:04:07.459Z,5.67
2022-11-21T19:06:35.723Z,5.13
2022-11-21T19:09:03.664Z,5.57
2022-11-21T19:11:32.914Z,5.67
2022-11-21T19:14:01.437Z,6.50
2022-11-21T19:16:31.307Z,7.13
2022-11-21T19:19:32.423Z,6.00
2022-11-21T19:21:47.335Z,6.20
2022-11-21T19:24:16.078Z,5.87
2022-11-21T19:26:45.339Z,5.73
2022-11-21T19:29:13.291Z,6.67
2022-11-21T19:31:45.799Z,5.87
2022-11-21T19:34:14.733Z,6.60
2022-11-21T19:36:43.348Z,6.00
2022-11-21T19:39:11.343Z,5.30
2022-11-21T19:41:39.282Z,4.93
2022-11-21T19:44:08.513Z,7.40
2022-11-21T19:46:38.928Z,5.70
2022-11-21T19:49:08.437Z,5.53
2022-11-21T19:51:38.374Z,5.40
2022-11-21T19:54:07.751Z,4.47
2022-11-21T19:56:36.812Z,5.43
2022-11-21T19:59:04.951Z,5.03
2022-11-21T20:01:35.553Z,5.17
2022-11-21T20:04:05.215Z,5.30
2022-11-21T20:06:34.844Z,4.53
2022-11-21T20:09:05.050Z,5.47
2022-11-21T20:11:33.658Z,5.60
2022-11-21T20:14:01.590Z,4.43
2022-11-21T20:16:31.863Z,4.63
2022-11-21T20:19:02.991Z,4.80
2022-11-21T20:21:31.511Z,5.20
2022-11-21T20:23:59.783Z,6.67
2022-11-21T20:26:28.437Z,4.73
2022-11-21T20:28:57.129Z,5.77
2022-11-21T20:31:27.166Z,5.13
2022-11-21T20:36:46.823Z,4.87
2022-11-21T20:39:17.272Z,5.30
2022-11-21T20:41:46.451Z,4.50
2022-11-21T20:47:03.943Z,5.30
2022-11-21T20:49:32.132Z,5.60
2022-11-21T20:54:49.391Z,5.00
2022-11-21T20:57:17.409Z,5.87
2022-11-21T20:59:45.289Z,6.10
2022-11-21T21:02:14.337Z,5.03
2022-11-21T21:04:42.503Z,5.03
2022-11-21T21:07:11.858Z,5.07
2022-11-21T21:09:39.772Z,5.33
2022-11-21T21:12:07.857Z,5.37
2022-11-21T21:14:35.680Z,4.50
2022-11-21T21:17:03.484Z,5.37
2022-11-21T21:19:31.571Z,4.80
2022-11-21T21:21:59.679Z,5.67
2022-11-21T21:24:28.886Z,5.80
2022-11-21T21:26:56.708Z,5.47
2022-11-21T21:29:24.531Z,5.03
2022-11-21T21:31:53.080Z,6.20
2022-11-21T21:34:22.236Z,5.83
2022-11-21T21:36:50.835Z,5.50
2022-11-21T21:39:18.778Z,5.57
2022-11-21T21:41:48.271Z,5.13
2022-11-21T21:44:17.228Z,5.40
2022-11-21T21:46:45.598Z,5.07
2022-11-21T21:49:13.523Z,5.00
2022-11-21T21:51:41.438Z,4.63
2022-11-21T21:54:16.688Z,4.10
2022-11-21T21:56:46.589Z,6.93
2022-11-21T21:59:18.125Z,4.67
2022-11-21T22:01:46.920Z,4.87
2022-11-21T22:04:14.969Z,4.73
2022-11-21T22:06:43.120Z,4.43
2022-11-21T22:09:11.159Z,5.13
2022-11-21T22:11:39.901Z,4.83
2022-11-21T22:14:11.429Z,5.07
2022-11-21T22:16:40.947Z,4.90
2022-11-21T22:19:09.302Z,4.30
2022-11-21T22:21:38.820Z,4.57
2022-11-21T22:24:28.500Z,5.17
2022-11-21T22:26:56.607Z,4.80
2022-11-21T22:29:24.446Z,4.20
2022-11-21T22:31:53.774Z,4.43
2022-11-21T22:34:21.923Z,4.47
2022-11-21T22:36:49.816Z,3.87
2022-11-21T22:39:18.055Z,3.23
2022-11-21T22:41:46.019Z,3.30
2022-11-21T22:44:13.921Z,3.47
2022-11-21T22:46:41.941Z,3.60
2022-11-21T22:49:11.166Z,3.70
2022-11-21T22:51:39.036Z,2.90
2022-11-21T22:54:06.986Z,3.20
2022-11-21T22:56:34.839Z,3.87
2022-11-21T22:59:02.680Z,2.90
2022-11-21T23:01:30.870Z,3.47
2022-11-21T23:03:58.769Z,3.10
2022-11-21T23:06:28.381Z,3.97
2022-11-21T23:08:57.913Z,3.73
2022-11-21T23:11:27.907Z,2.93
2022-11-21T23:13:57.217Z,3.23
2022-11-21T23:16:25.398Z,3.50
2022-11-21T23:18:54.071Z,3.43
2022-11-21T23:21:22.550Z,3.30
2022-11-21T23:23:51.758Z,4.33
2022-11-21T23:26:20.314Z,4.23
2022-11-21T23:28:48.573Z,4.27
2022-11-21T23:31:16.508Z,3.30
2022-11-21T23:33:44.407Z,3.37
2022-11-21T23:36:12.340Z,4.47
2022-11-21T23:38:40.294Z,4.40
2022-11-21T23:41:09.526Z,4.27
2022-11-21T23:43:37.629Z,4.73
2022-11-21T23:46:05.521Z,4.00
2022-11-21T23:48:33.380Z,3.87
2022-11-21T23:51:01.197Z,3.40
2022-11-21T23:53:29.037Z,3.90
2022-11-21T23:55:56.882Z,3.80
